Chase, Kansas
Current Conditions -  °F | °C
As of 11:15 AM on Sunday 23 Nov 2014 (Local Time) from KGBD Reporting Station
Overcast Overcast  
Wind Chill: 52°   Ceiling: 4800
Heat Index: 52°   Visibility: 10mi
Dew Point: 36°   Wind: 36mph
Humidity: 54%   Direction: 360°N
Pressure: 29.54"   Gusts: 46mph
Location:  38.36°N, 98.35°W
Report Text: KGBD 231715Z AUTO 36031G40KT 10SM OVC048 11/02 A2954 RMK AO1
Loading
Personal Weather Stations






























Interactive Weather Map New forecast layout! Learn more

10-Day Weather Forecast

Advertisements
Track Severe Weather on mobile